Time,TemperatureF,DewpointF,PressureIn,WindDirection,WindDirectionDegrees,WindSpeedMPH,WindSpeedGustMPH,Humidity,HourlyPrecipIn,Conditions,Clouds,dailyrainin,SolarRadiationWatts/m^2,SoftwareType,DateUTC
2013-05-16 00:01:00,61.7,55.0,30.00,NNW,334,0.0,0.0,79,0.00,,,0.00,0,weatherlink.com 1.10,2013-05-16 04:01:00,
2013-05-16 00:16:00,60.9,55.0,30.00,NNW,334,0.0,0.0,81,0.00,,,0.00,0,weatherlink.com 1.10,2013-05-16 04:16:00,
2013-05-16 00:31:00,60.2,55.0,30.00,NNW,334,0.0,0.0,82,0.00,,,0.00,0,weatherlink.com 1.10,2013-05-16 04:31:00,
2013-05-16 00:46:00,59.6,54.0,30.00,NNW,334,0.0,0.0,83,0.00,,,0.00,0,weatherlink.com 1.10,2013-05-16 04:46:00,
2013-05-16 01:01:00,58.7,55.0,29.99,NNW,334,0.0,0.0,86,0.00,,,0.00,0,weatherlink.com 1.10,2013-05-16 05:01:00,
2013-05-16 01:16:00,58.3,54.0,29.99,NNW,334,0.0,0.0,86,0.00,,,0.00,0,weatherlink.com 1.10,2013-05-16 05:16:00,
2013-05-16 01:31:00,58.4,55.0,29.99,NNW,334,0.0,0.0,87,0.00,,,0.00,0,weatherlink.com 1.10,2013-05-16 05:31:00,
2013-05-16 01:46:00,58.2,54.0,29.99,NNW,334,0.0,0.0,86,0.00,,,0.00,0,weatherlink.com 1.10,2013-05-16 05:46:00,
2013-05-16 02:01:00,57.8,54.0,29.98,NNW,334,0.0,0.0,87,0.00,,,0.00,0,weatherlink.com 1.10,2013-05-16 06:01:00,
2013-05-16 02:16:00,56.8,53.0,29.98,NNW,334,0.0,0.0,88,0.00,,,0.00,0,weatherlink.com 1.10,2013-05-16 06:16:00,
2013-05-16 02:31:00,56.5,53.0,29.98,NNW,334,0.0,0.0,89,0.00,,,0.00,0,weatherlink.com 1.10,2013-05-16 06:31:00,
2013-05-16 02:46:00,55.6,53.0,29.98,NNW,334,0.0,0.0,90,0.00,,,0.00,0,weatherlink.com 1.10,2013-05-16 06:46:00,
2013-05-16 03:01:00,55.0,53.0,29.98,NNW,334,0.0,0.0,92,0.00,,,0.00,0,weatherlink.com 1.10,2013-05-16 07:01:00,
2013-05-16 03:16:00,54.4,52.0,29.97,NNW,334,0.0,0.0,91,0.00,,,0.00,0,weatherlink.com 1.10,2013-05-16 07:16:00,
2013-05-16 03:31:00,54.1,52.0,29.97,NNW,334,0.0,0.0,93,0.00,,,0.00,0,weatherlink.com 1.10,2013-05-16 07:31:00,
2013-05-16 03:46:00,53.5,52.0,29.97,NNW,334,0.0,0.0,93,0.00,,,0.00,0,weatherlink.com 1.10,2013-05-16 07:46:00,
2013-05-16 04:01:00,53.1,52.0,29.97,NNW,334,0.0,0.0,94,0.00,,,0.00,0,weatherlink.com 1.10,2013-05-16 08:01:00,
2013-05-16 04:16:00,52.7,51.0,29.97,NNW,334,0.0,0.0,94,0.00,,,0.00,0,weatherlink.com 1.10,2013-05-16 08:16:00,
2013-05-16 04:31:00,52.7,51.0,29.98,NNW,334,0.0,1.0,95,0.00,,,0.00,0,weatherlink.com 1.10,2013-05-16 08:31:00,
2013-05-16 04:46:00,52.5,51.0,29.98,NNW,334,0.0,0.0,95,0.00,,,0.00,0,weatherlink.com 1.10,2013-05-16 08:46:00,
2013-05-16 05:01:00,52.4,51.0,29.98,NNW,334,0.0,0.0,95,0.00,,,0.00,0,weatherlink.com 1.10,2013-05-16 09:01:00,
2013-05-16 05:16:00,52.1,51.0,29.99,NNW,336,0.0,0.0,95,0.00,,,0.00,0,weatherlink.com 1.10,2013-05-16 09:16:00,
2013-05-16 05:31:00,52.1,51.0,29.99,NNW,336,0.0,0.0,96,0.00,,,0.00,0,weatherlink.com 1.10,2013-05-16 09:31:00,
2013-05-16 05:46:00,52.2,51.0,29.99,NNW,336,0.0,0.0,96,0.00,,,0.00,0,weatherlink.com 1.10,2013-05-16 09:46:00,
2013-05-16 06:01:00,52.2,51.0,29.99,NNW,336,0.0,0.0,95,0.00,,,0.00,0,weatherlink.com 1.10,2013-05-16 10:01:00,
2013-05-16 06:16:00,51.8,51.0,29.99,NNW,336,0.0,0.0,95,0.00,,,0.00,0,weatherlink.com 1.10,2013-05-16 10:16:00,
2013-05-16 06:31:00,51.8,51.0,29.99,NNW,336,0.0,0.0,96,0.00,,,0.00,0,weatherlink.com 1.10,2013-05-16 10:31:00,
2013-05-16 06:46:00,51.7,51.0,29.99,NNW,336,0.0,0.0,96,0.00,,,0.00,7,weatherlink.com 1.10,2013-05-16 10:46:00,
2013-05-16 07:01:00,51.7,51.0,30.00,NNW,336,0.0,0.0,96,0.00,,,0.00,16,weatherlink.com 1.10,2013-05-16 11:01:00,
2013-05-16 07:17:00,51.8,51.0,30.00,NNW,336,0.0,0.0,96,0.00,,,0.00,26,weatherlink.com 1.10,2013-05-16 11:17:00,
2013-05-16 07:32:00,51.9,51.0,30.01,NNW,336,0.0,0.0,97,0.00,,,0.00,21,weatherlink.com 1.10,2013-05-16 11:32:00,
2013-05-16 07:47:00,52.2,51.0,30.01,NNW,336,0.0,0.0,97,0.00,,,0.00,49,weatherlink.com 1.10,2013-05-16 11:47:00,
2013-05-16 08:02:00,52.7,52.0,30.01,NNW,336,0.0,0.0,97,0.00,,,0.00,60,weatherlink.com 1.10,2013-05-16 12:02:00,
2013-05-16 08:17:00,53.3,53.0,30.02,North,355,0.0,2.0,97,0.00,,,0.00,70,weatherlink.com 1.10,2013-05-16 12:17:00,
2013-05-16 08:32:00,53.9,53.0,30.01,North,355,0.0,0.0,97,0.00,,,0.00,88,weatherlink.com 1.10,2013-05-16 12:32:00,
2013-05-16 08:47:00,54.6,54.0,30.01,North,355,0.0,0.0,97,0.00,,,0.00,121,weatherlink.com 1.10,2013-05-16 12:47:00,
2013-05-16 09:02:00,56.1,55.0,30.02,North,355,1.0,2.0,96,0.00,,,0.00,120,weatherlink.com 1.10,2013-05-16 13:02:00,
2013-05-16 09:17:00,57.8,56.0,30.02,North,355,1.0,2.0,94,0.00,,,0.00,151,weatherlink.com 1.10,2013-05-16 13:17:00,
2013-05-16 09:32:00,59.3,57.0,30.02,North,355,0.0,1.0,92,0.00,,,0.00,120,weatherlink.com 1.10,2013-05-16 13:32:00,
2013-05-16 09:47:00,60.4,58.0,30.02,North,355,0.0,1.0,91,0.00,,,0.00,169,weatherlink.com 1.10,2013-05-16 13:47:00,
2013-05-16 10:02:00,61.8,59.0,30.03,North,355,0.0,0.0,90,0.00,,,0.00,190,weatherlink.com 1.10,2013-05-16 14:02:00,
2013-05-16 10:17:00,63.2,59.0,30.03,North,355,0.0,2.0,86,0.00,,,0.00,174,weatherlink.com 1.10,2013-05-16 14:17:00,
2013-05-16 10:32:00,64.3,59.0,30.03,North,355,1.0,2.0,84,0.00,,,0.00,153,weatherlink.com 1.10,2013-05-16 14:32:00,
2013-05-16 10:47:00,64.8,60.0,30.02,North,355,0.0,0.0,85,0.00,,,0.00,141,weatherlink.com 1.10,2013-05-16 14:47:00,
2013-05-16 11:02:00,65.4,61.0,30.03,North,355,0.0,0.0,84,0.00,,,0.00,165,weatherlink.com 1.10,2013-05-16 15:02:00,
2013-05-16 11:17:00,66.0,61.0,30.03,North,355,0.0,1.0,83,0.00,,,0.00,199,weatherlink.com 1.10,2013-05-16 15:17:00,
2013-05-16 11:32:00,66.8,62.0,30.03,North,355,0.0,0.0,83,0.00,,,0.00,221,weatherlink.com 1.10,2013-05-16 15:32:00,
2013-05-16 11:47:00,67.4,62.0,30.02,North,355,0.0,0.0,82,0.00,,,0.00,178,weatherlink.com 1.10,2013-05-16 15:47:00,
2013-05-16 12:02:00,67.7,62.0,30.02,North,355,0.0,1.0,81,0.00,,,0.00,223,weatherlink.com 1.10,2013-05-16 16:02:00,
2013-05-16 12:18:00,68.3,61.0,30.01,North,355,0.0,2.0,78,0.00,,,0.00,221,weatherlink.com 1.10,2013-05-16 16:18:00,
2013-05-16 12:33:00,68.8,61.0,30.01,North,355,0.0,1.0,77,0.00,,,0.00,243,weatherlink.com 1.10,2013-05-16 16:33:00,
2013-05-16 12:48:00,69.5,61.0,30.00,NW,315,1.0,2.0,75,0.00,,,0.00,606,weatherlink.com 1.10,2013-05-16 16:48:00,
2013-05-16 13:03:00,71.4,62.0,30.00,SSW,197,2.0,3.0,71,0.00,,,0.00,856,weatherlink.com 1.10,2013-05-16 17:03:00,
2013-05-16 13:18:00,72.8,61.0,29.99,NW,312,0.0,3.0,66,0.00,,,0.00,427,weatherlink.com 1.10,2013-05-16 17:18:00,
2013-05-16 13:33:00,74.5,60.0,29.98,WNW,288,2.0,4.0,60,0.00,,,0.00,972,weatherlink.com 1.10,2013-05-16 17:33:00,
2013-05-16 13:48:00,75.4,59.0,29.98,NW,316,0.0,4.0,58,0.00,,,0.00,1055,weatherlink.com 1.10,2013-05-16 17:48:00,
2013-05-16 14:03:00,75.7,59.0,29.98,WNW,292,0.0,3.0,56,0.00,,,0.00,752,weatherlink.com 1.10,2013-05-16 18:03:00,
2013-05-16 14:18:00,76.9,60.0,29.97,WNW,301,5.0,5.0,57,0.00,,,0.00,1027,weatherlink.com 1.10,2013-05-16 18:18:00,
2013-05-16 14:33:00,76.3,58.0,29.96,NW,306,4.0,6.0,54,0.00,,,0.00,220,weatherlink.com 1.10,2013-05-16 18:33:00,
2013-05-16 14:48:00,76.7,60.0,29.96,West,276,0.0,3.0,56,0.00,,,0.00,1007,weatherlink.com 1.10,2013-05-16 18:48:00,
2013-05-16 15:03:00,77.9,61.0,29.96,West,276,0.0,2.0,57,0.00,,,0.00,944,weatherlink.com 1.10,2013-05-16 19:03:00,
2013-05-16 15:18:00,78.7,58.0,29.96,NW,309,4.0,6.0,50,0.00,,,0.00,995,weatherlink.com 1.10,2013-05-16 19:18:00,
2013-05-16 15:33:00,78.7,60.0,29.95,NNW,338,0.0,5.0,52,0.00,,,0.00,308,weatherlink.com 1.10,2013-05-16 19:33:00,
2013-05-16 15:48:00,78.5,59.0,29.95,NW,305,0.0,6.0,51,0.00,,,0.00,849,weatherlink.com 1.10,2013-05-16 19:48:00,
2013-05-16 16:03:00,78.9,56.0,29.94,NW,304,3.0,6.0,45,0.00,,,0.00,837,weatherlink.com 1.10,2013-05-16 20:03:00,
2013-05-16 16:18:00,79.3,58.0,29.94,NW,311,0.0,4.0,49,0.00,,,0.00,775,weatherlink.com 1.10,2013-05-16 20:18:00,
2013-05-16 16:33:00,79.7,58.0,29.94,ENE,59,0.0,6.0,47,0.00,,,0.00,754,weatherlink.com 1.10,2013-05-16 20:33:00,
2013-05-16 16:48:00,80.3,60.0,29.94,NW,306,0.0,4.0,50,0.00,,,0.00,696,weatherlink.com 1.10,2013-05-16 20:48:00,
2013-05-16 17:03:00,80.2,59.0,29.93,NW,309,1.0,6.0,48,0.00,,,0.00,652,weatherlink.com 1.10,2013-05-16 21:03:00,
2013-05-16 17:18:00,80.0,59.0,29.93,NNW,340,1.0,2.0,49,0.00,,,0.00,631,weatherlink.com 1.10,2013-05-16 21:18:00,
2013-05-16 17:33:00,78.8,57.0,29.93,NNE,27,2.0,3.0,47,0.00,,,0.00,570,weatherlink.com 1.10,2013-05-16 21:33:00,
2013-05-16 17:48:00,80.1,55.0,29.93,NNW,334,0.0,7.0,42,0.00,,,0.00,512,weatherlink.com 1.10,2013-05-16 21:48:00,
2013-05-16 18:03:00,80.8,56.0,29.93,WNW,296,1.0,3.0,42,0.00,,,0.00,468,weatherlink.com 1.10,2013-05-16 22:03:00,
2013-05-16 18:18:00,80.1,55.0,29.93,NNW,334,0.0,5.0,42,0.00,,,0.00,376,weatherlink.com 1.10,2013-05-16 22:18:00,
2013-05-16 18:33:00,79.8,55.0,29.93,NNW,330,3.0,4.0,43,0.00,,,0.00,206,weatherlink.com 1.10,2013-05-16 22:33:00,
2013-05-16 18:48:00,79.3,55.0,29.93,NW,326,4.0,5.0,44,0.00,,,0.00,241,weatherlink.com 1.10,2013-05-16 22:48:00,
2013-05-16 19:03:00,78.5,57.0,29.93,NW,317,0.0,3.0,48,0.00,,,0.00,243,weatherlink.com 1.10,2013-05-16 23:03:00,
2013-05-16 19:18:00,79.0,56.0,29.93,East,82,0.0,3.0,46,0.00,,,0.00,188,weatherlink.com 1.10,2013-05-16 23:18:00,
2013-05-16 19:33:00,79.3,58.0,29.93,NE,44,0.0,1.0,49,0.00,,,0.00,53,weatherlink.com 1.10,2013-05-16 23:33:00,
2013-05-16 19:48:00,78.2,59.0,29.93,ENE,69,0.0,2.0,52,0.00,,,0.00,69,weatherlink.com 1.10,2013-05-16 23:48:00,
2013-05-16 20:04:00,77.1,59.0,29.94,SE,128,1.0,2.0,53,0.00,,,0.00,26,weatherlink.com 1.10,2013-05-17 00:04:00,
2013-05-16 20:19:00,74.9,58.0,29.94,SE,128,0.0,2.0,56,0.00,,,0.00,12,weatherlink.com 1.10,2013-05-17 00:19:00,
2013-05-16 20:33:00,73.0,58.0,29.95,SE,128,0.0,2.0,60,0.00,,,0.00,0,weatherlink.com 1.10,2013-05-17 00:33:00,
2013-05-16 20:48:00,71.7,58.0,29.95,SE,130,0.0,1.0,63,0.00,,,0.00,0,weatherlink.com 1.10,2013-05-17 00:48:00,
2013-05-16 21:03:00,70.8,58.0,29.95,SE,130,0.0,0.0,65,0.00,,,0.00,0,weatherlink.com 1.10,2013-05-17 01:03:00,
2013-05-16 21:18:00,69.7,59.0,29.96,SE,130,0.0,0.0,69,0.00,,,0.00,0,weatherlink.com 1.10,2013-05-17 01:18:00,
2013-05-16 21:33:00,68.7,59.0,29.96,SE,130,0.0,0.0,70,0.00,,,0.00,0,weatherlink.com 1.10,2013-05-17 01:33:00,
2013-05-16 21:48:00,67.9,59.0,29.96,SE,130,0.0,0.0,72,0.00,,,0.00,0,weatherlink.com 1.10,2013-05-17 01:48:00,
2013-05-16 22:03:00,66.8,59.0,29.97,SE,131,0.0,0.0,77,0.00,,,0.00,0,weatherlink.com 1.10,2013-05-17 02:03:00,
2013-05-16 22:19:00,65.7,59.0,29.98,SE,131,0.0,0.0,79,0.00,,,0.00,0,weatherlink.com 1.10,2013-05-17 02:19:00,
2013-05-16 22:34:00,64.7,58.0,29.98,SE,131,0.0,0.0,80,0.00,,,0.00,0,weatherlink.com 1.10,2013-05-17 02:34:00,
2013-05-16 22:49:00,63.7,59.0,29.98,SE,131,0.0,0.0,83,0.00,,,0.00,0,weatherlink.com 1.10,2013-05-17 02:49:00,
2013-05-16 23:04:00,62.9,58.0,29.98,SE,131,0.0,0.0,84,0.00,,,0.00,0,weatherlink.com 1.10,2013-05-17 03:04:00,
2013-05-16 23:19:00,62.2,58.0,29.98,SE,131,0.0,0.0,86,0.00,,,0.00,0,weatherlink.com 1.10,2013-05-17 03:19:00,
2013-05-16 23:34:00,61.3,57.0,29.99,SE,131,0.0,0.0,87,0.00,,,0.00,0,weatherlink.com 1.10,2013-05-17 03:34:00,
2013-05-16 23:49:00,61.1,58.0,29.99,SE,131,0.0,0.0,89,0.00,,,0.00,0,weatherlink.com 1.10,2013-05-17 03:49:00,